Time;durP1;ratioP1;P1;durP2;ratioP2;P2;SDS_P1;SDS_P2;PMS_P1;PMS_P2;Temp;Humidity;BMP_temperature;BMP_pressure;BME280_temperature;BME280_humidity;BME280_pressure;Samples;Min_cycle;Max_cycle;Signal;HPM_P1;HPM_P2
2023/02/26 00:00:11;;;;;;;3.42;1.27;;;1.60;99.90;;;;;;6039877;23;95885;-76
2023/02/26 00:02:38;;;;;;;2.33;0.90;;;1.60;99.90;;;;;;6066062;23;92454;-76
2023/02/26 00:05:06;;;;;;;2.83;0.93;;;1.60;99.90;;;;;;6040484;23;92432;-76
2023/02/26 00:07:33;;;;;;;6.63;1.20;;;1.60;99.90;;;;;;6040659;23;91729;-76
2023/02/26 00:10:01;;;;;;;1.50;0.80;;;1.60;99.90;;;;;;6016122;23;93319;-76
2023/02/26 00:12:29;;;;;;;3.67;0.95;;;1.60;99.90;;;;;;5992077;23;95387;-76
2023/02/26 00:14:56;;;;;;;2.60;0.73;;;1.60;99.90;;;;;;6037937;23;94832;-76
2023/02/26 00:17:35;;;;;;;6.38;1.00;;;1.60;99.90;;;;;;6065958;23;92324;-76
2023/02/26 00:20:04;;;;;;;6.28;1.20;;;1.60;99.90;;;;;;6065573;23;93152;-76
2023/02/26 00:22:31;;;;;;;4.07;1.00;;;1.60;99.90;;;;;;6065889;23;92948;-76
2023/02/26 00:24:58;;;;;;;3.58;0.88;;;1.60;99.90;;;;;;6065742;23;92332;-76
2023/02/26 00:27:25;;;;;;;6.88;1.50;;;1.50;99.90;;;;;;6065631;23;96758;-76
2023/02/26 00:29:53;;;;;;;6.25;1.00;;;1.50;99.90;;;;;;6039161;23;95763;-76
2023/02/26 00:32:20;;;;;;;2.85;1.00;;;1.50;99.90;;;;;;6039882;23;95535;-76
2023/02/26 00:34:48;;;;;;;3.42;1.00;;;1.50;99.90;;;;;;6063742;23;92941;-76
2023/02/26 00:37:37;;;;;;;0.73;0.57;;;1.40;99.90;;;;;;6039793;23;92435;-76
2023/02/26 00:40:19;;;;;;;2.28;0.90;;;1.40;99.90;;;;;;6038112;23;95679;-76
2023/02/26 00:42:46;;;;;;;3.35;0.90;;;1.40;99.90;;;;;;6065290;23;95374;-76
2023/02/26 00:45:14;;;;;;;9.82;1.25;;;1.40;99.90;;;;;;6063879;23;92528;-76
2023/02/26 00:47:58;;;;;;;2.65;1.25;;;1.40;99.90;;;;;;6015608;23;92440;-76
2023/02/26 00:50:26;;;;;;;4.45;1.50;;;1.40;99.90;;;;;;6039352;23;96010;-76
2023/02/26 00:53:17;;;;;;;5.82;1.42;;;1.30;99.90;;;;;;6039060;23;95481;-76
2023/02/26 00:55:44;;;;;;;6.72;1.60;;;1.30;99.90;;;;;;6040005;23;92504;-76
2023/02/26 00:58:11;;;;;;;4.13;1.05;;;1.30;99.90;;;;;;6040219;23;91648;-76
2023/02/26 01:00:38;;;;;;;6.07;1.15;;;1.20;99.90;;;;;;6039209;23;95990;-76
2023/02/26 01:03:06;;;;;;;3.38;1.20;;;1.20;99.90;;;;;;6015154;23;95441;-76
2023/02/26 01:05:34;;;;;;;3.75;1.20;;;1.20;99.90;;;;;;6038151;23;94864;-76
2023/02/26 01:08:23;;;;;;;4.32;0.90;;;1.20;99.90;;;;;;6015200;23;92554;-76
2023/02/26 01:10:50;;;;;;;3.33;1.10;;;1.20;99.90;;;;;;6065087;23;93138;-76
2023/02/26 01:13:17;;;;;;;4.13;1.13;;;1.20;99.90;;;;;;6038820;23;95455;-76
2023/02/26 01:15:51;;;;;;;3.85;1.45;;;1.10;99.90;;;;;;6065571;23;92385;-76
2023/02/26 01:18:37;;;;;;;3.50;1.20;;;1.10;99.90;;;;;;6039569;23;92488;-76
2023/02/26 01:21:08;;;;;;;3.58;1.23;;;1.10;99.90;;;;;;6065079;23;93254;-76
2023/02/26 01:23:40;;;;;;;2.42;1.45;;;1.00;99.90;;;;;;6039888;23;92891;-76
2023/02/26 01:26:18;;;;;;;3.83;1.30;;;1.00;99.90;;;;;;6039752;23;92449;-76
2023/02/26 01:28:46;;;;;;;4.28;1.23;;;1.00;99.90;;;;;;6040722;23;92483;-76
2023/02/26 01:32:08;;;;;;;6.30;1.33;;;0.90;99.90;;;;;;6038562;23;100947;-76
2023/02/26 01:34:47;;;;;;;4.50;1.42;;;1.00;99.90;;;;;;5973545;23;98084;-76
2023/02/26 01:37:32;;;;;;;4.10;1.15;;;0.90;99.90;;;;;;6041123;23;92476;-76
2023/02/26 01:40:35;;;;;;;5.25;1.40;;;0.80;99.90;;;;;;6040661;23;92438;-76
2023/02/26 01:43:09;;;;;;;3.53;0.95;;;0.80;99.90;;;;;;6040708;23;93248;-76
2023/02/26 01:46:00;;;;;;;2.97;0.90;;;0.70;99.90;;;;;;6065016;23;95232;-76
2023/02/26 01:48:37;;;;;;;3.15;0.88;;;0.70;99.90;;;;;;6041009;23;92424;-76
2023/02/26 01:51:05;;;;;;;3.47;1.15;;;0.70;99.90;;;;;;6067124;23;91575;-76
2023/02/26 01:53:32;;;;;;;5.55;1.20;;;0.70;99.90;;;;;;6016146;23;95819;-76
2023/02/26 01:56:08;;;;;;;2.17;0.95;;;0.70;99.90;;;;;;6039997;23;99368;-76
2023/02/26 01:58:37;;;;;;;4.38;1.10;;;0.70;99.90;;;;;;6039473;23;94806;-76
2023/02/26 02:01:05;;;;;;;3.97;1.23;;;0.70;99.90;;;;;;6040658;23;93148;-76
2023/02/26 02:03:36;;;;;;;1.42;0.88;;;0.70;99.90;;;;;;6066495;23;93173;-76
2023/02/26 02:06:16;;;;;;;4.32;1.20;;;0.70;99.90;;;;;;6040425;23;94929;-76
2023/02/26 02:08:44;;;;;;;3.90;1.55;;;0.70;99.90;;;;;;6064998;23;92413;-76
2023/02/26 02:11:13;;;;;;;4.53;0.98;;;0.70;99.90;;;;;;6016359;23;92492;-76
2023/02/26 02:14:14;;;;;;;1.02;0.80;;;0.70;99.90;;;;;;6039834;23;95925;-76
2023/02/26 02:16:47;;;;;;;2.55;1.05;;;0.70;99.90;;;;;;6040382;23;92910;-76
2023/02/26 02:19:17;;;;;;;5.78;1.38;;;0.70;99.90;;;;;;6040613;23;92472;-76
2023/02/26 02:22:13;;;;;;;2.88;1.17;;;0.60;99.90;;;;;;6040290;23;92490;-76
2023/02/26 02:25:19;;;;;;;3.92;0.70;;;0.70;99.90;;;;;;6064948;23;95425;-76
2023/02/26 02:27:52;;;;;;;;;;;0.70;99.90;;;;;;6041011;23;95264;-76
2023/02/26 02:30:27;;;;;;;2.20;0.90;;;0.60;99.90;;;;;;6042231;23;92305;-76
2023/02/26 02:33:04;;;;;;;2.40;1.58;;;0.60;99.90;;;;;;6041086;23;92766;-76
2023/02/26 02:35:33;;;;;;;3.22;1.15;;;0.60;99.90;;;;;;6066395;23;93372;-76
2023/02/26 02:38:10;;;;;;;4.10;1.23;;;0.60;99.90;;;;;;6064128;23;95400;-76
2023/02/26 02:40:42;;;;;;;6.68;1.00;;;0.60;99.90;;;;;;6065157;23;92389;-76
2023/02/26 02:43:14;;;;;;;1.60;1.00;;;0.60;99.90;;;;;;6040776;23;91740;-76
2023/02/26 02:45:44;;;;;;;2.45;1.10;;;0.60;99.90;;;;;;6040351;23;96270;-76
2023/02/26 02:48:33;;;;;;;4.32;1.33;;;0.60;99.90;;;;;;6039904;23;95588;-75
2023/02/26 02:51:07;;;;;;;1.73;0.63;;;0.60;99.90;;;;;;6039015;23;95242;-76
2023/02/26 02:53:57;;;;;;;2.10;1.00;;;0.60;99.90;;;;;;6040355;23;92600;-76
2023/02/26 02:56:50;;;;;;;3.58;1.10;;;0.60;99.90;;;;;;5982593;23;95774;-76
2023/02/26 02:59:43;;;;;;;1.90;0.80;;;0.60;99.90;;;;;;6066182;23;92981;-76
2023/02/26 03:02:39;;;;;;;2.55;0.90;;;0.60;99.90;;;;;;6039790;23;92399;-75
2023/02/26 03:05:06;;;;;;;3.58;0.80;;;0.50;99.90;;;;;;6066305;23;92360;-75
2023/02/26 03:07:40;;;;;;;1.20;0.60;;;0.50;99.90;;;;;;6040441;23;92486;-75
2023/02/26 03:10:08;;;;;;;1.00;0.63;;;0.50;99.90;;;;;;6040402;23;95356;-75
2023/02/26 03:12:35;;;;;;;5.05;1.23;;;0.50;99.90;;;;;;6016074;23;92489;-75
2023/02/26 03:15:03;;;;;;;3.10;1.02;;;0.50;99.90;;;;;;6016942;23;93148;-75
2023/02/26 03:17:49;;;;;;;1.52;0.80;;;0.50;99.90;;;;;;6038358;23;97750;-75
2023/02/26 03:20:39;;;;;;;3.15;0.88;;;0.50;99.90;;;;;;6064116;23;97888;-75
2023/02/26 03:23:34;;;;;;;2.88;0.75;;;0.50;99.90;;;;;;6040376;23;92492;-75
2023/02/26 03:26:45;;;;;;;2.67;0.90;;;0.40;99.90;;;;;;6040395;23;92399;-75
2023/02/26 03:29:25;;;;;;;3.75;1.38;;;0.40;99.90;;;;;;5924930;23;95062;-75
2023/02/26 03:31:59;;;;;;;2.55;0.77;;;0.40;99.90;;;;;;5948691;23;95610;-75
2023/02/26 03:34:55;;;;;;;5.20;1.10;;;0.30;99.90;;;;;;6024589;23;92537;-75
2023/02/26 03:37:43;;;;;;;3.22;0.80;;;0.30;99.90;;;;;;6064838;23;91667;-75
2023/02/26 03:40:46;;;;;;;3.25;0.80;;;0.30;99.90;;;;;;6039986;23;95914;-76
2023/02/26 03:43:30;;;;;;;3.58;0.85;;;0.30;99.90;;;;;;6039780;23;95308;-75
2023/02/26 03:46:00;;;;;;;2.67;1.00;;;0.20;99.90;;;;;;6039062;23;94841;-75
2023/02/26 03:48:30;;;;;;;12.15;1.33;;;0.20;99.90;;;;;;6039914;23;92943;-75
2023/02/26 03:51:03;;;;;;;2.58;0.90;;;0.20;99.90;;;;;;6039626;23;95449;-75
2023/02/26 03:53:59;;;;;;;1.67;0.90;;;0.20;99.90;;;;;;6039698;23;93953;-75
2023/02/26 03:56:45;;;;;;;2.63;1.13;;;0.20;99.90;;;;;;6016615;23;92370;-75
2023/02/26 03:59:24;;;;;;;3.55;0.80;;;0.20;99.90;;;;;;6042740;23;92390;-75
2023/02/26 04:02:16;;;;;;;2.72;0.80;;;0.20;99.90;;;;;;6018312;23;94214;-75
2023/02/26 04:05:05;;;;;;;2.95;1.02;;;0.20;99.90;;;;;;6040434;23;95118;-75
2023/02/26 04:07:33;;;;;;;5.72;1.08;;;0.20;99.90;;;;;;6064263;23;92633;-75
2023/02/26 04:10:00;;;;;;;3.90;1.35;;;0.10;99.90;;;;;;6039771;23;92495;-75
2023/02/26 04:12:29;;;;;;;2.70;1.10;;;0.10;99.90;;;;;;6037493;23;97626;-75
2023/02/26 04:14:57;;;;;;;3.38;1.02;;;0.20;99.90;;;;;;6039913;23;97716;-75
2023/02/26 04:17:25;;;;;;;3.33;1.92;;;0.20;99.90;;;;;;6015660;23;93256;-75
2023/02/26 04:19:52;;;;;;;2.97;1.40;;;0.20;99.90;;;;;;6066220;23;92857;-75
2023/02/26 04:22:19;;;;;;;6.45;1.33;;;0.20;99.90;;;;;;6039551;23;96029;-75
2023/02/26 04:24:46;;;;;;;4.05;1.00;;;0.20;99.90;;;;;;6039711;23;95732;-75
2023/02/26 04:27:14;;;;;;;2.95;0.80;;;0.10;99.90;;;;;;5992557;23;92531;-75
2023/02/26 04:29:41;;;;;;;1.92;0.90;;;0.10;99.90;;;;;;6040126;23;91755;-75
2023/02/26 04:32:08;;;;;;;3.70;1.00;;;0.10;99.90;;;;;;6039616;23;96272;-75
2023/02/26 04:34:35;;;;;;;2.47;0.90;;;0.10;99.90;;;;;;6039206;23;95391;-75
2023/02/26 04:37:03;;;;;;;3.13;0.80;;;0.10;99.90;;;;;;6038306;23;95093;-75
2023/02/26 04:39:30;;;;;;;6.15;0.80;;;0.10;99.90;;;;;;6039405;23;92518;-75
2023/02/26 04:41:57;;;;;;;1.38;0.88;;;0.10;99.90;;;;;;6039530;23;94989;-75
2023/02/26 04:44:24;;;;;;;2.60;1.00;;;0.10;99.90;;;;;;6039280;23;95186;-75
2023/02/26 04:46:51;;;;;;;2.72;0.90;;;0.10;99.90;;;;;;6039752;23;92374;-75
2023/02/26 04:49:19;;;;;;;1.95;1.00;;;0.10;99.90;;;;;;6039396;23;92484;-75
2023/02/26 04:51:46;;;;;;;2.45;1.30;;;0.10;99.90;;;;;;6039367;23;95601;-75
2023/02/26 04:54:15;;;;;;;2.60;0.93;;;0.10;99.90;;;;;;6039844;23;95227;-75
2023/02/26 04:56:42;;;;;;;4.22;1.23;;;0.10;99.90;;;;;;6065748;23;92318;-75
2023/02/26 04:59:09;;;;;;;2.25;1.13;;;0.10;99.90;;;;;;6015228;23;92509;-75
2023/02/26 05:01:36;;;;;;;3.72;1.15;;;0.10;99.90;;;;;;6038718;23;97885;-75
2023/02/26 05:04:06;;;;;;;3.95;1.08;;;0.00;99.90;;;;;;5994594;23;97787;-75
2023/02/26 05:06:34;;;;;;;2.13;1.20;;;0.00;99.90;;;;;;6040603;23;92469;-75
2023/02/26 05:09:01;;;;;;;8.77;1.15;;;0.00;99.90;;;;;;6041050;23;92425;-75
2023/02/26 05:11:29;;;;;;;5.03;1.20;;;0.00;99.90;;;;;;6040403;23;94052;-75
2023/02/26 05:13:56;;;;;;;4.15;1.17;;;0.00;99.90;;;;;;6016146;23;95525;-75
2023/02/26 05:16:23;;;;;;;2.15;0.85;;;0.00;99.90;;;;;;6040645;23;92463;-75
2023/02/26 05:18:50;;;;;;;5.40;1.55;;;-0.10;99.90;;;;;;6041412;23;91781;-75
2023/02/26 05:21:18;;;;;;;3.85;1.00;;;-0.10;99.90;;;;;;6040568;23;95836;-75
2023/02/26 05:23:45;;;;;;;5.70;1.35;;;-0.10;99.90;;;;;;6040457;23;95432;-75
2023/02/26 05:26:12;;;;;;;5.60;1.08;;;-0.10;99.90;;;;;;6039637;23;94817;-75
2023/02/26 05:28:39;;;;;;;2.58;1.05;;;-0.10;99.90;;;;;;6040247;23;92523;-75
2023/02/26 05:31:07;;;;;;;2.28;1.08;;;-0.10;99.90;;;;;;6016484;23;95564;-75
2023/02/26 05:33:34;;;;;;;4.88;1.30;;;-0.10;99.90;;;;;;6016329;23;95243;-75
2023/02/26 05:36:01;;;;;;;3.80;1.08;;;-0.10;99.90;;;;;;6066975;23;92384;-75
2023/02/26 05:38:28;;;;;;;4.90;1.00;;;-0.10;99.90;;;;;;6040836;23;92433;-75
2023/02/26 05:40:56;;;;;;;1.02;0.70;;;-0.10;99.90;;;;;;6016289;23;95873;-75
2023/02/26 05:43:24;;;;;;;3.78;1.00;;;-0.10;99.90;;;;;;6066811;23;93020;-75
2023/02/26 05:45:52;;;;;;;1.90;0.90;;;-0.10;99.90;;;;;;6041092;23;92342;-75
2023/02/26 05:48:19;;;;;;;3.95;1.52;;;-0.10;99.90;;;;;;6041306;23;92984;-75
2023/02/26 05:50:49;;;;;;;2.45;0.93;;;-0.10;99.90;;;;;;6065000;23;96777;-75
2023/02/26 05:53:16;;;;;;;4.05;1.38;;;-0.10;99.90;;;;;;6066602;23;95461;-75
2023/02/26 05:55:43;;;;;;;2.50;0.88;;;-0.20;99.90;;;;;;6066628;23;92612;-75
2023/02/26 05:58:11;;;;;;;1.80;1.10;;;-0.20;99.90;;;;;;6066806;23;92429;-75
2023/02/26 06:00:38;;;;;;;2.67;1.10;;;-0.20;99.90;;;;;;6040702;23;93374;-75
2023/02/26 06:03:05;;;;;;;3.75;0.77;;;-0.20;99.90;;;;;;6016069;23;106559;-75
2023/02/26 06:05:32;;;;;;;2.28;1.13;;;-0.20;99.90;;;;;;6040856;23;92436;-75
2023/02/26 06:07:59;;;;;;;3.72;1.42;;;-0.20;99.90;;;;;;6041050;23;91850;-75
2023/02/26 06:10:26;;;;;;;4.18;1.00;;;-0.20;99.90;;;;;;6066293;23;93212;-75
2023/02/26 06:12:53;;;;;;;3.40;1.05;;;-0.20;99.90;;;;;;6065860;23;92932;-75
2023/02/26 06:15:20;;;;;;;3.92;1.02;;;-0.30;99.90;;;;;;6065399;23;94727;-75
2023/02/26 06:17:46;;;;;;;3.65;1.00;;;-0.30;99.90;;;;;;6066302;23;92315;-75
2023/02/26 06:20:14;;;;;;;2.80;0.85;;;-0.30;99.90;;;;;;6040303;23;95705;-75
2023/02/26 06:22:40;;;;;;;1.88;0.80;;;-0.30;99.90;;;;;;6016092;23;95555;-75
2023/02/26 06:25:08;;;;;;;2.92;0.88;;;-0.30;99.90;;;;;;6040625;23;92525;-75
2023/02/26 06:27:35;;;;;;;3.05;1.00;;;-0.20;99.90;;;;;;6066345;23;92444;-75
2023/02/26 06:30:03;;;;;;;3.67;1.25;;;-0.20;99.90;;;;;;6039856;23;104659;-75
2023/02/26 06:32:30;;;;;;;3.15;1.20;;;-0.20;99.90;;;;;;6066571;23;92729;-75
2023/02/26 06:34:57;;;;;;;2.03;1.27;;;-0.20;99.90;;;;;;6041095;23;92550;-75
2023/02/26 06:37:24;;;;;;;4.45;1.08;;;-0.20;99.90;;;;;;6040422;23;92548;-75
2023/02/26 06:39:51;;;;;;;3.05;1.05;;;-0.20;99.90;;;;;;6038361;23;96079;-75
2023/02/26 06:42:18;;;;;;;6.88;1.20;;;-0.20;99.90;;;;;;6066268;23;95339;-75
2023/02/26 06:44:46;;;;;;;3.00;1.00;;;-0.20;99.90;;;;;;6039897;23;92471;-75
2023/02/26 06:47:13;;;;;;;4.63;1.27;;;-0.10;99.90;;;;;;6040585;23;92844;-75
2023/02/26 06:49:40;;;;;;;3.92;0.95;;;-0.10;99.90;;;;;;6066007;23;93311;-75
2023/02/26 06:52:07;;;;;;;6.32;1.20;;;-0.10;99.90;;;;;;6040346;23;95453;-75
2023/02/26 06:54:34;;;;;;;8.35;1.38;;;-0.10;99.90;;;;;;6016118;23;92487;-75
2023/02/26 06:57:02;;;;;;;1.77;0.98;;;0.00;99.90;;;;;;6040608;23;96938;-75
2023/02/26 06:59:29;;;;;;;1.40;1.30;;;0.10;99.90;;;;;;6066323;23;93340;-75
2023/02/26 07:01:56;;;;;;;3.17;1.20;;;0.20;99.90;;;;;;6040453;23;93102;-75
2023/02/26 07:04:23;;;;;;;3.03;1.50;;;0.40;99.90;;;;;;6039419;23;94786;-75
2023/02/26 07:06:51;;;;;;;3.55;1.50;;;0.60;99.90;;;;;;6016225;23;92488;-75
2023/02/26 07:09:20;;;;;;;4.18;1.80;;;0.70;99.90;;;;;;6040062;23;96088;-75
2023/02/26 07:11:47;;;;;;;4.20;1.58;;;0.70;99.90;;;;;;6039485;23;94057;-75
2023/02/26 07:14:14;;;;;;;5.72;1.60;;;0.80;99.90;;;;;;6066208;23;92426;-75
2023/02/26 07:16:41;;;;;;;3.30;1.77;;;0.90;99.90;;;;;;6040213;23;93023;-75
2023/02/26 07:19:08;;;;;;;5.03;1.35;;;0.90;99.90;;;;;;6016390;23;94584;-75
2023/02/26 07:21:35;;;;;;;2.33;1.70;;;1.00;99.90;;;;;;6066426;23;92960;-75
2023/02/26 07:24:02;;;;;;;5.88;2.30;;;1.10;99.90;;;;;;6039902;23;92396;-75
2023/02/26 07:26:29;;;;;;;6.60;2.13;;;1.20;99.90;;;;;;6040523;23;92580;-75
2023/02/26 07:28:56;;;;;;;1.35;1.15;;;1.50;99.90;;;;;;6038397;23;95601;-75
2023/02/26 07:31:23;;;;;;;4.15;1.48;;;1.80;99.90;;;;;;6039912;23;97929;-75
2023/02/26 07:33:50;;;;;;;3.40;1.73;;;2.10;99.90;;;;;;6064402;23;92390;-75
2023/02/26 07:36:17;;;;;;;2.70;1.70;;;2.40;99.90;;;;;;6040816;23;92853;-75
2023/02/26 07:38:44;;;;;;;1.70;1.33;;;2.60;99.90;;;;;;6065937;23;93117;-75
2023/02/26 07:41:11;;;;;;;3.47;1.17;;;2.80;99.90;;;;;;6040415;23;92673;-75
2023/02/26 07:43:38;;;;;;;6.43;2.90;;;3.00;99.90;;;;;;6066182;23;92450;-75
2023/02/26 07:46:05;;;;;;;1.80;1.40;;;3.10;99.90;;;;;;6066735;23;91608;-75
2023/02/26 07:48:32;;;;;;;2.72;1.10;;;3.10;99.90;;;;;;6016039;23;95763;-75
2023/02/26 07:50:59;;;;;;;2.40;1.98;;;3.10;99.90;;;;;;6039553;23;95642;-75
2023/02/26 07:53:26;;;;;;;5.05;1.80;;;3.00;99.90;;;;;;6064573;23;94787;-75
2023/02/26 07:55:53;;;;;;;2.28;2.00;;;2.90;99.90;;;;;;6039948;23;92536;-75
2023/02/26 07:58:20;;;;;;;4.07;3.78;;;3.00;99.90;;;;;;6064117;23;95688;-75
2023/02/26 08:00:47;;;;;;;3.45;1.95;;;3.20;99.90;;;;;;6065660;23;93070;-75
2023/02/26 08:03:14;;;;;;;1.35;0.85;;;3.30;99.90;;;;;;6040044;23;92702;-75
2023/02/26 08:05:41;;;;;;;2.10;1.25;;;3.50;99.90;;;;;;6065971;23;93053;-75
2023/02/26 08:08:08;;;;;;;4.32;2.40;;;3.60;99.90;;;;;;6040309;23;93259;-75
2023/02/26 08:10:35;;;;;;;4.10;2.92;;;3.60;99.90;;;;;;6040540;23;92864;-75
2023/02/26 08:13:02;;;;;;;3.35;2.75;;;3.70;99.90;;;;;;6015373;23;92989;-76
2023/02/26 08:15:29;;;;;;;2.70;2.50;;;4.00;99.90;;;;;;6016086;23;92545;-76
2023/02/26 08:17:57;;;;;;;2.55;2.30;;;4.30;99.90;;;;;;6014425;23;94900;-76
2023/02/26 08:20:23;;;;;;;2.80;2.53;;;4.80;99.90;;;;;;6065490;23;98184;-76
2023/02/26 08:22:51;;;;;;;3.40;3.10;;;5.20;99.90;;;;;;6040157;23;92909;-76
2023/02/26 08:25:18;;;;;;;4.00;1.70;;;5.50;99.90;;;;;;6066092;23;92692;-76
2023/02/26 08:27:45;;;;;;;4.97;0.80;;;5.80;99.90;;;;;;6065501;23;93354;-76
2023/02/26 08:30:12;;;;;;;5.07;1.45;;;5.80;99.90;;;;;;6039556;23;95466;-76
2023/02/26 08:32:41;;;;;;;2.78;1.20;;;5.90;99.90;;;;;;6066003;23;92913;-76
2023/02/26 08:35:09;;;;;;;1.92;1.02;;;6.00;99.90;;;;;;6040491;23;91808;-76
2023/02/26 08:37:37;;;;;;;2.10;0.82;;;6.00;99.90;;;;;;6067170;23;93151;-76
2023/02/26 08:40:07;;;;;;;2.65;1.10;;;5.90;99.90;;;;;;6066629;23;93062;-76
2023/02/26 08:42:34;;;;;;;1.90;1.00;;;5.60;99.80;;;;;;6039334;23;94814;-76
2023/02/26 08:45:02;;;;;;;2.25;0.85;;;5.30;99.70;;;;;;6066858;23;92427;-76
2023/02/26 08:47:29;;;;;;;5.28;1.23;;;5.10;99.90;;;;;;6016532;23;95775;-76
2023/02/26 08:49:57;;;;;;;3.35;1.23;;;4.80;99.90;;;;;;6066353;23;100500;-76
2023/02/26 08:52:24;;;;;;;3.42;1.10;;;4.60;99.90;;;;;;6016721;23;92386;-76
2023/02/26 08:54:51;;;;;;;3.50;1.20;;;4.40;99.90;;;;;;6041027;23;93004;-76
2023/02/26 08:57:18;;;;;;;2.30;1.10;;;4.30;99.90;;;;;;6066842;23;93183;-76
2023/02/26 08:59:45;;;;;;;3.05;0.77;;;4.20;99.90;;;;;;6067172;23;92904;-76
2023/02/26 09:02:13;;;;;;;3.00;1.00;;;4.10;99.90;;;;;;6040983;23;92423;-76
2023/02/26 09:04:40;;;;;;;1.35;0.80;;;4.10;99.90;;;;;;6067016;23;92370;-76
2023/02/26 09:07:07;;;;;;;4.38;0.95;;;4.10;99.90;;;;;;6064993;23;95712;-76
2023/02/26 09:09:34;;;;;;;2.95;0.82;;;4.10;99.90;;;;;;6040429;23;98182;-76
2023/02/26 09:12:01;;;;;;;1.50;0.70;;;4.20;99.90;;;;;;6016565;23;92454;-76
2023/02/26 09:14:28;;;;;;;2.95;0.93;;;4.20;99.90;;;;;;5969881;23;94948;-76
2023/02/26 09:16:55;;;;;;;0.95;0.70;;;4.20;99.90;;;;;;6006724;23;95798;-76
2023/02/26 09:19:22;;;;;;;1.38;1.10;;;4.20;99.90;;;;;;6008724;23;93000;-76
2023/02/26 09:21:49;;;;;;;2.38;0.90;;;4.20;99.90;;;;;;6006751;23;95036;-76
2023/02/26 09:24:16;;;;;;;1.67;0.90;;;4.30;99.90;;;;;;6009468;23;91894;-76
2023/02/26 09:26:43;;;;;;;1.55;0.80;;;4.30;99.90;;;;;;6006839;23;96101;-76
2023/02/26 09:29:12;;;;;;;1.70;0.70;;;4.40;99.90;;;;;;6008444;23;92997;-76
2023/02/26 09:31:39;;;;;;;0.73;0.70;;;4.40;99.90;;;;;;6007380;23;94886;-76
2023/02/26 09:34:06;;;;;;;1.23;0.85;;;4.50;99.90;;;;;;5983181;23;92696;-76
2023/02/26 09:36:36;;;;;;;3.08;0.80;;;4.50;99.90;;;;;;6007348;23;93417;-76
2023/02/26 09:39:04;;;;;;;1.38;0.85;;;4.50;99.90;;;;;;6006530;23;95647;-76
2023/02/26 09:41:37;;;;;;;3.47;0.70;;;4.60;99.90;;;;;;6008824;23;92359;-76
2023/02/26 09:44:27;;;;;;;0.80;0.80;;;4.70;99.90;;;;;;6007008;23;92474;-76
2023/02/26 09:47:08;;;;;;;1.40;0.90;;;4.70;99.90;;;;;;6007901;23;93211;-76
2023/02/26 09:50:04;;;;;;;4.60;0.88;;;4.70;99.90;;;;;;6007361;23;95706;-76
2023/02/26 09:52:36;;;;;;;2.58;0.73;;;4.80;99.90;;;;;;6008744;23;92409;-76
2023/02/26 09:55:38;;;;;;;1.48;0.80;;;4.80;99.90;;;;;;6008614;23;92428;-76
2023/02/26 09:58:15;;;;;;;1.98;0.73;;;4.90;99.90;;;;;;6006819;23;95761;-76
2023/02/26 10:01:02;;;;;;;2.53;0.60;;;5.00;99.90;;;;;;6006969;23;95326;-76
2023/02/26 10:03:58;;;;;;;0.55;0.52;;;5.10;99.90;;;;;;6007188;23;92502;-76
2023/02/26 10:06:31;;;;;;;5.10;1.00;;;5.20;99.90;;;;;;6008711;23;92423;-76
2023/02/26 10:09:11;;;;;;;1.80;0.70;;;5.20;99.90;;;;;;6008308;23;93197;-76
2023/02/26 10:11:48;;;;;;;1.42;0.68;;;5.30;99.90;;;;;;6008468;23;92899;-76
2023/02/26 10:14:25;;;;;;;1.17;0.70;;;5.30;99.30;;;;;;6051342;23;92518;-77
2023/02/26 10:16:58;;;;;;;3.78;0.88;;;5.30;99.30;;;;;;6041538;23;91666;-76
2023/02/26 10:19:32;;;;;;;1.83;1.00;;;5.30;99.80;;;;;;6040698;23;92425;-76
2023/02/26 10:22:32;;;;;;;4.75;0.93;;;5.40;99.00;;;;;;6066288;23;92959;-76
2023/02/26 10:25:06;;;;;;;3.70;0.55;;;5.40;99.00;;;;;;6039398;23;95290;-76
2023/02/26 10:27:52;;;;;;;0.80;0.60;;;5.40;99.10;;;;;;6066672;23;92383;-76
2023/02/26 10:30:45;;;;;;;2.15;0.77;;;5.50;99.40;;;;;;6040442;23;93152;-76
2023/02/26 10:33:56;;;;;;;1.13;0.60;;;5.50;99.60;;;;;;6060757;23;92881;-76
2023/02/26 10:36:33;;;;;;;0.52;0.52;;;5.60;98.70;;;;;;6066774;23;92915;-77
2023/02/26 10:39:22;;;;;;;1.55;0.80;;;5.60;98.70;;;;;;6066461;23;92738;-76
2023/02/26 10:41:51;;;;;;;0.40;0.40;;;5.70;98.50;;;;;;6040305;23;95931;-76
2023/02/26 10:44:28;;;;;;;0.88;0.63;;;5.70;97.90;;;;;;6040733;23;92664;-76
2023/02/26 10:46:55;;;;;;;1.15;0.60;;;5.70;98.10;;;;;;6066613;23;92632;-76
2023/02/26 10:49:36;;;;;;;5.65;0.70;;;5.70;98.30;;;;;;6066313;23;92417;-76
2023/02/26 10:52:18;;;;;;;3.45;0.70;;;5.70;97.50;;;;;;6038660;23;98333;-76
2023/02/26 10:55:13;;;;;;;2.60;0.52;;;5.70;97.90;;;;;;6066135;23;95310;-76
2023/02/26 10:57:48;;;;;;;0.95;0.50;;;5.70;96.70;;;;;;6066265;23;92390;-76
2023/02/26 11:00:19;;;;;;;0.82;0.50;;;5.70;97.30;;;;;;6066268;23;92385;-76
2023/02/26 11:02:50;;;;;;;1.13;0.60;;;5.70;97.10;;;;;;6040557;23;95910;-76
2023/02/26 11:05:29;;;;;;;2.33;0.82;;;5.70;96.60;;;;;;6064961;23;92960;-76
2023/02/26 11:08:12;;;;;;;2.15;0.80;;;5.70;96.90;;;;;;6066539;23;92441;-76
2023/02/26 11:11:01;;;;;;;2.13;0.70;;;5.90;97.00;;;;;;6041372;23;91711;-76
2023/02/26 11:13:31;;;;;;;0.57;0.55;;;6.10;96.50;;;;;;6065671;23;93355;-76
2023/02/26 11:16:03;;;;;;;3.25;0.80;;;6.20;96.10;;;;;;6040676;23;92837;-76
2023/02/26 11:18:39;;;;;;;1.52;0.50;;;6.30;96.00;;;;;;6088088;23;95162;-76
2023/02/26 11:21:14;;;;;;;4.63;0.93;;;6.50;96.00;;;;;;6066212;23;92411;-76
2023/02/26 11:23:44;;;;;;;0.85;0.68;;;6.60;96.00;;;;;;6089095;23;95608;-76
2023/02/26 11:26:18;;;;;;;3.10;1.10;;;6.70;96.00;;;;;;6065943;23;93018;-76
2023/02/26 11:28:47;;;;;;;0.50;0.50;;;6.90;95.90;;;;;;6040473;23;92435;-76
2023/02/26 11:31:18;;;;;;;0.60;0.52;;;7.00;96.00;;;;;;6039848;23;92441;-76
2023/02/26 11:34:10;;;;;;;1.85;0.60;;;7.00;95.00;;;;;;6066227;23;93845;-76
2023/02/26 11:36:40;;;;;;;5.05;0.95;;;7.10;95.60;;;;;;6040729;23;95566;-76
2023/02/26 11:39:21;;;;;;;2.30;1.00;;;7.10;95.40;;;;;;6064976;23;92610;-76
2023/02/26 11:41:51;;;;;;;0.70;0.70;;;7.30;96.00;;;;;;6040514;23;93021;-76
2023/02/26 11:44:33;;;;;;;0.80;0.57;;;7.40;95.40;;;;;;6064316;23;96079;-76
2023/02/26 11:47:05;;;;;;;1.05;0.50;;;7.40;95.10;;;;;;6066060;23;95328;-76
2023/02/26 11:49:32;;;;;;;1.92;1.15;;;7.30;95.20;;;;;;6066268;23;92303;-76
2023/02/26 11:52:26;;;;;;;0.73;0.52;;;7.40;95.10;;;;;;6040016;23;92515;-76
2023/02/26 11:55:01;;;;;;;0.90;0.60;;;7.50;95.40;;;;;;6066074;23;93030;-76
2023/02/26 11:57:30;;;;;;;2.42;0.80;;;7.40;95.30;;;;;;6066054;23;92892;-76
2023/02/26 11:59:59;;;;;;;0.77;0.68;;;7.50;94.60;;;;;;6066171;23;92450;-76
2023/02/26 12:02:35;;;;;;;0.60;0.50;;;7.60;94.40;;;;;;6040467;23;91741;-76
2023/02/26 12:05:06;;;;;;;1.00;0.73;;;7.60;94.10;;;;;;6065960;23;93266;-76
2023/02/26 12:07:33;;;;;;;1.65;0.50;;;7.50;94.60;;;;;;6065619;23;92926;-76
2023/02/26 12:10:00;;;;;;;1.50;0.52;;;7.50;94.70;;;;;;6064143;23;95422;-76
2023/02/26 12:12:29;;;;;;;1.38;0.70;;;7.50;94.10;;;;;;6039975;23;92466;-75
2023/02/26 12:15:10;;;;;;;1.60;0.50;;;7.60;94.90;;;;;;6039692;23;93362;-76
2023/02/26 12:18:11;;;;;;;0.82;0.65;;;7.70;94.50;;;;;;6040185;23;92776;-76
2023/02/26 12:21:09;;;;;;;0.50;0.50;;;7.70;94.20;;;;;;6040216;23;92431;-75
2023/02/26 12:23:50;;;;;;;2.47;0.60;;;7.80;93.90;;;;;;6065996;23;92413;-75
2023/02/26 12:26:27;;;;;;;3.25;0.50;;;7.90;94.20;;;;;;6065522;23;93188;-75
2023/02/26 12:29:06;;;;;;;2.08;0.77;;;7.90;93.80;;;;;;6066232;23;93027;-76
2023/02/26 12:31:42;;;;;;;1.52;0.70;;;8.00;94.20;;;;;;6039536;23;92506;-76
2023/02/26 12:34:33;;;;;;;2.28;0.70;;;8.10;94.20;;;;;;6066004;23;92828;-75
2023/02/26 12:37:31;;;;;;;1.65;0.80;;;8.20;93.40;;;;;;6038311;23;95672;-76
2023/02/26 12:40:36;;;;;;;0.55;0.50;;;8.30;93.60;;;;;;6039541;23;98026;-76
2023/02/26 12:43:23;;;;;;;0.63;0.60;;;8.30;93.00;;;;;;6015956;23;92371;-75
2023/02/26 12:46:25;;;;;;;2.70;0.77;;;8.20;92.60;;;;;;6039830;23;92404;-75
2023/02/26 12:49:22;;;;;;;3.20;0.70;;;7.90;92.10;;;;;;5924315;23;95757;-75
2023/02/26 12:51:53;;;;;;;4.13;1.10;;;7.70;92.30;;;;;;6065749;23;93015;-75
2023/02/26 12:54:51;;;;;;;1.85;0.63;;;7.50;92.20;;;;;;6039863;23;92904;-75
2023/02/26 12:57:56;;;;;;;0.88;0.70;;;7.50;92.50;;;;;;6039985;23;91773;-75
2023/02/26 13:00:44;;;;;;;1.42;0.55;;;7.50;92.40;;;;;;6039236;23;95833;-75
2023/02/26 13:03:29;;;;;;;1.60;0.68;;;7.50;92.80;;;;;;6063899;23;95663;-75
2023/02/26 13:05:57;;;;;;;;;;;7.70;93.10;;;;;;6064635;23;94688;-75
2023/02/26 13:08:39;;;;;;;0.63;0.38;;;7.90;92.50;;;;;;6089557;23;93029;-75
2023/02/26 13:11:21;;;;;;;0.95;0.55;;;7.90;92.90;;;;;;6039570;23;93365;-75
2023/02/26 13:14:02;;;;;;;1.08;0.60;;;7.80;94.00;;;;;;6064575;23;95520;-75
2023/02/26 13:16:42;;;;;;;2.95;0.65;;;7.60;94.00;;;;;;6039710;23;92499;-75
2023/02/26 13:19:24;;;;;;;0.68;0.60;;;7.40;94.30;;;;;;6039926;23;92453;-75
2023/02/26 13:22:16;;;;;;;1.00;0.60;;;7.50;94.40;;;;;;6040391;23;95735;-75
2023/02/26 13:24:53;;;;;;;2.80;0.85;;;7.40;93.60;;;;;;6066915;23;92879;-75
2023/02/26 13:27:25;;;;;;;1.45;0.63;;;7.50;93.60;;;;;;6067084;23;92373;-75
2023/02/26 13:30:16;;;;;;;1.75;0.88;;;7.60;93.40;;;;;;6041152;23;92416;-75